< < Back
Terminal Aerodrome Forecast


Current Version              Previous Versions:   1  2  3  4  5  6  7  8  9  

Terminal Aerodrome Forecast

027
FTUS42 KCHS 202300
TAFSAV
TAF
KSAV 202320Z 2100/2124 34006KT P6SM BKN150
     FM211300 29008KT P6SM FEW250
     FM211900 22007KT P6SM SKC=

Latest METAR

699
SAUS80 KWBC 211600
MTRSAV
METAR KSAV 211553Z 30009KT 10SM FEW250 28/17 A3001 RMK AO2 SLP161
T02830167 $


USA.gov is the U.S. government's official web portal to all federal, state and local government web resources and services.